Time;durP1;ratioP1;P1;durP2;ratioP2;P2;SDS_P1;SDS_P2;PMS_P1;PMS_P2;Temp;Humidity;BMP_temperature;BMP_pressure;BME280_temperature;BME280_humidity;BME280_pressure;Samples;Min_cycle;Max_cycle;Signal;HPM_P1;HPM_P2
2021/09/01 00:00:45;;;;;;;0.98;0.98;;;;;;;;;;5092846;28;20027;-64
2021/09/01 00:03:10;;;;;;;0.88;0.88;;;;;;;;;;5094904;28;20036;-64
2021/09/01 00:05:36;;;;;;;1.73;0.90;;;;;;;;;;5096640;28;20056;-64
2021/09/01 00:08:02;;;;;;;1.33;0.88;;;;;;;;;;5096653;28;20437;-64
2021/09/01 00:10:27;;;;;;;0.70;0.70;;;;;;;;;;5096474;28;20462;-65
2021/09/01 00:12:52;;;;;;;0.75;0.75;;;;;;;;;;5096396;28;20067;-64
2021/09/01 00:15:18;;;;;;;1.10;0.70;;;;;;;;;;5096307;28;20044;-65
2021/09/01 00:17:43;;;;;;;0.77;0.77;;;;;;;;;;5096415;28;20039;-64
2021/09/01 00:20:09;;;;;;;0.70;0.70;;;;;;;;;;5096762;28;20020;-64
2021/09/01 00:22:35;;;;;;;0.70;0.70;;;;;;;;;;5078575;28;20149;-65
2021/09/01 00:25:00;;;;;;;0.82;0.80;;;;;;;;;;5078380;28;20028;-65
2021/09/01 00:27:26;;;;;;;0.77;0.77;;;;;;;;;;5096393;28;20073;-65
2021/09/01 00:29:51;;;;;;;3.13;0.80;;;;;;;;;;5096407;28;20462;-65
2021/09/01 00:32:16;;;;;;;0.95;0.70;;;;;;;;;;5096232;28;20048;-63
2021/09/01 00:34:42;;;;;;;0.77;0.77;;;;;;;;;;5095857;28;20033;-64
2021/09/01 00:37:07;;;;;;;0.70;0.70;;;;;;;;;;5095872;28;20390;-63
2021/09/01 00:39:33;;;;;;;0.75;0.75;;;;;;;;;;5096046;28;20032;-63
2021/09/01 00:42:16;;;;;;;0.70;0.70;;;;;;;;;;5096093;28;20036;-64
2021/09/01 00:44:42;;;;;;;1.02;0.77;;;;;;;;;;5096074;28;20044;-63
2021/09/01 07:30:47;;;;;;;29.08;26.08;;;;;;;;;;5092962;28;20094;-61
2021/09/01 07:33:12;;;;;;;74.03;66.20;;;;;;;;;;5074750;28;20028;-61
2021/09/01 07:35:38;;;;;;;25.67;23.15;;;;;;;;;;5092450;28;20126;-61
2021/09/01 07:38:04;;;;;;;16.23;14.75;;;;;;;;;;5093229;28;20044;-61
2021/09/01 07:40:30;;;;;;;52.63;47.60;;;;;;;;;;5074643;28;20081;-62
2021/09/01 07:42:56;;;;;;;18.55;16.63;;;;;;;;;;5092965;28;20405;-61
2021/09/01 07:45:21;;;;;;;11.65;10.45;;;;;;;;;;5092744;28;20058;-61
2021/09/01 07:47:47;;;;;;;11.85;9.93;;;;;;;;;;5092718;28;20044;-61
2021/09/01 07:50:12;;;;;;;3.50;3.25;;;;;;;;;;5092812;28;20028;-61
2021/09/01 07:52:38;;;;;;;2.30;2.00;;;;;;;;;;5092736;28;20034;-61
2021/09/01 07:55:04;;;;;;;5.80;5.00;;;;;;;;;;5092541;28;20421;-61
2021/09/01 07:57:29;;;;;;;9.75;6.10;;;;;;;;;;5092666;28;20094;-61
2021/09/01 07:59:55;;;;;;;12.35;7.75;;;;;;;;;;5074699;28;20074;-61
2021/09/01 08:02:20;;;;;;;329.65;170.25;;;;;;;;;;5092633;28;20034;-61
2021/09/01 08:04:46;;;;;;;530.60;274.73;;;;;;;;;;5092758;28;20067;-61
2021/09/01 08:07:11;;;;;;;40.20;22.90;;;;;;;;;;5092714;28;20040;-61
2021/09/01 08:09:37;;;;;;;287.88;107.63;;;;;;;;;;5093019;28;20485;-61
2021/09/01 08:12:02;;;;;;;223.48;89.40;;;;;;;;;;5092781;28;20046;-61
2021/09/01 08:14:28;;;;;;;5.40;4.90;;;;;;;;;;5092972;28;20039;-61
2021/09/01 08:16:53;;;;;;;131.75;42.20;;;;;;;;;;5092866;28;20040;-61
2021/09/01 08:19:19;;;;;;;53.53;20.80;;;;;;;;;;5092791;28;20031;-61
2021/09/01 08:21:44;;;;;;;167.00;53.55;;;;;;;;;;5074709;28;20039;-62
2021/09/01 08:24:09;;;;;;;315.90;91.22;;;;;;;;;;5076363;28;20065;-61
2021/09/01 08:26:35;;;;;;;462.70;146.93;;;;;;;;;;5095975;28;20032;-61
2021/09/01 08:29:00;;;;;;;976.83;371.83;;;;;;;;;;5095953;28;20493;-61
2021/09/01 08:31:26;;;;;;;261.92;84.95;;;;;;;;;;5096184;28;20033;-61
2021/09/01 08:33:51;;;;;;;279.10;82.78;;;;;;;;;;5096429;28;20020;-61
2021/09/01 08:36:17;;;;;;;24.20;12.43;;;;;;;;;;5095779;28;20048;-61
2021/09/01 08:38:43;;;;;;;126.72;43.17;;;;;;;;;;5078018;28;20040;-61
2021/09/01 08:41:09;;;;;;;37.95;15.20;;;;;;;;;;5096492;28;20028;-62
2021/09/01 08:43:36;;;;;;;69.13;26.27;;;;;;;;;;5096018;28;20032;-61
2021/09/01 08:46:02;;;;;;;192.23;55.10;;;;;;;;;;5096235;28;20446;-62
2021/09/01 08:48:28;;;;;;;157.40;50.58;;;;;;;;;;5095998;28;20066;-61
2021/09/01 08:50:54;;;;;;;680.80;218.82;;;;;;;;;;5096095;28;20055;-61
2021/09/01 08:53:19;;;;;;;71.05;26.50;;;;;;;;;;5096029;28;20087;-61
2021/09/01 08:55:47;;;;;;;400.15;133.73;;;;;;;;;;5095701;28;20079;-61
2021/09/01 08:58:12;;;;;;;101.72;36.75;;;;;;;;;;5095886;28;20043;-61
2021/09/01 09:00:39;;;;;;;23.58;12.02;;;;;;;;;;5095543;28;20020;-61
2021/09/01 09:03:04;;;;;;;240.90;84.55;;;;;;;;;;5095566;28;20118;-63
2021/09/01 09:05:37;;;;;;;31.70;15.95;;;;;;;;;;5077495;28;20178;-63
2021/09/01 09:08:04;;;;;;;29.63;14.65;;;;;;;;;;5095454;28;20032;-63
2021/09/01 09:10:37;;;;;;;22.25;11.15;;;;;;;;;;5077155;28;20055;-63
2021/09/01 09:13:16;;;;;;;12.48;7.57;;;;;;;;;;5095284;28;20039;-63
2021/09/01 09:15:42;;;;;;;55.85;26.58;;;;;;;;;;5095158;28;20040;-63
2021/09/01 09:18:25;;;;;;;63.72;28.05;;;;;;;;;;5095468;28;20032;-63
2021/09/01 09:21:06;;;;;;;93.97;54.97;;;;;;;;;;5095208;28;20032;-63
2021/09/01 09:23:32;;;;;;;14.30;10.45;;;;;;;;;;5095281;28;20079;-63
2021/09/01 09:25:57;;;;;;;19.63;11.77;;;;;;;;;;5094912;28;20028;-63
2021/09/01 09:28:23;;;;;;;148.73;67.43;;;;;;;;;;5094401;28;20032;-63
2021/09/01 09:30:48;;;;;;;26.50;15.88;;;;;;;;;;5095611;28;20032;-63
2021/09/01 09:33:14;;;;;;;12.80;9.05;;;;;;;;;;5095481;28;20051;-63
2021/09/01 09:35:48;;;;;;;29.63;16.75;;;;;;;;;;5075952;28;20047;-63
2021/09/01 09:38:15;;;;;;;27.65;16.52;;;;;;;;;;5077327;28;20038;-63
2021/09/01 09:40:41;;;;;;;49.75;26.98;;;;;;;;;;5094984;28;20028;-63
2021/09/01 09:43:17;;;;;;;51.60;27.65;;;;;;;;;;5094813;28;20032;-63
2021/09/01 09:45:44;;;;;;;22.20;11.80;;;;;;;;;;5095022;28;20069;-63
2021/09/01 09:48:09;;;;;;;22.13;12.23;;;;;;;;;;5094859;28;20059;-63
2021/09/01 09:50:36;;;;;;;11.93;7.20;;;;;;;;;;5094846;28;20450;-63
2021/09/01 09:53:01;;;;;;;25.77;17.23;;;;;;;;;;5076422;28;20416;-63
2021/09/01 09:55:27;;;;;;;8.45;6.60;;;;;;;;;;5094469;28;20046;-63
2021/09/01 09:57:56;;;;;;;51.72;28.25;;;;;;;;;;5094736;28;20089;-63
2021/09/01 10:00:22;;;;;;;19.85;13.18;;;;;;;;;;5094489;28;20458;-63
2021/09/01 10:02:48;;;;;;;39.53;23.08;;;;;;;;;;5094375;28;20039;-63
2021/09/01 10:05:16;;;;;;;50.67;29.27;;;;;;;;;;5094307;28;20031;-63
2021/09/01 10:07:42;;;;;;;37.17;24.33;;;;;;;;;;5094449;28;20455;-64
2021/09/01 10:10:08;;;;;;;20.77;15.27;;;;;;;;;;5094631;28;20044;-64
2021/09/01 10:12:51;;;;;;;8.13;7.32;;;;;;;;;;5094348;28;20063;-64
2021/09/01 10:15:25;;;;;;;21.67;11.75;;;;;;;;;;5094168;28;20063;-64
2021/09/01 10:17:54;;;;;;;49.47;15.88;;;;;;;;;;5093581;28;20024;-64
2021/09/01 10:20:20;;;;;;;14.23;8.07;;;;;;;;;;5093536;28;20052;-64
2021/09/01 10:22:59;;;;;;;7.82;6.07;;;;;;;;;;5093450;28;20127;-64
2021/09/01 10:25:40;;;;;;;139.60;43.47;;;;;;;;;;5093156;28;20410;-64
2021/09/01 10:28:24;;;;;;;11.60;7.50;;;;;;;;;;5091622;28;20052;-64
2021/09/01 10:31:08;;;;;;;15.93;8.43;;;;;;;;;;5092071;28;20047;-64
2021/09/01 10:33:38;;;;;;;29.42;12.35;;;;;;;;;;5093536;28;20124;-64
2021/09/01 10:36:22;;;;;;;30.13;14.65;;;;;;;;;;5093144;28;20046;-65
2021/09/01 10:38:47;;;;;;;8.75;5.68;;;;;;;;;;5093596;28;20040;-64
2021/09/01 10:41:13;;;;;;;10.82;7.55;;;;;;;;;;5093567;28;20036;-64
2021/09/01 10:43:38;;;;;;;8.80;6.07;;;;;;;;;;5075308;28;20032;-64
2021/09/01 10:46:03;;;;;;;13.68;6.97;;;;;;;;;;5093503;28;20024;-64
2021/09/01 10:48:29;;;;;;;22.50;10.90;;;;;;;;;;5092713;28;20478;-64
2021/09/01 11:04:57;;;;;;;5.65;4.00;;;;;;;;;;5079467;27;2147768;-64
2021/09/01 11:07:23;;;;;;;4.75;4.18;;;;;;;;;;5131737;27;20063;-64
2021/09/01 11:09:49;;;;;;;8.88;6.15;;;;;;;;;;5130115;28;20035;-64
2021/09/01 11:12:15;;;;;;;5.90;4.63;;;;;;;;;;5131632;28;20027;-60
2021/09/01 11:14:48;;;;;;;6.03;4.80;;;;;;;;;;5131651;27;20061;-63
2021/09/01 11:17:17;;;;;;;5.25;4.53;;;;;;;;;;5131364;28;20457;-60
2021/09/01 11:19:48;;;;;;;4.85;4.35;;;;;;;;;;5131123;27;20023;-61
2021/09/01 11:22:15;;;;;;;16.85;9.80;;;;;;;;;;5131301;28;20031;-60
2021/09/01 11:24:41;;;;;;;8.93;6.55;;;;;;;;;;5131300;27;20069;-60
2021/09/01 11:27:09;;;;;;;7.90;5.47;;;;;;;;;;5131350;28;20122;-60
2021/09/01 11:29:34;;;;;;;6.85;4.63;;;;;;;;;;5129958;28;20491;-61
2021/09/01 11:32:00;;;;;;;6.97;5.00;;;;;;;;;;5131218;27;20114;-61
2021/09/01 11:34:26;;;;;;;4.63;4.18;;;;;;;;;;5131515;27;20110;-61
2021/09/01 11:36:51;;;;;;;7.43;4.32;;;;;;;;;;5131257;28;20027;-61
2021/09/01 11:39:17;;;;;;;15.48;10.10;;;;;;;;;;5131169;27;20027;-61
2021/09/01 11:41:45;;;;;;;12.05;8.75;;;;;;;;;;5131050;28;20049;-63
2021/09/01 11:44:10;;;;;;;88.57;53.97;;;;;;;;;;5131053;27;20111;-63
2021/09/01 11:46:37;;;;;;;4.80;4.30;;;;;;;;;;5131228;28;20019;-62
2021/09/01 11:49:12;;;;;;;7.40;5.22;;;;;;;;;;5131165;27;20011;-63
2021/09/01 11:51:39;;;;;;;4.90;4.50;;;;;;;;;;5130974;28;20085;-62
2021/09/01 11:54:05;;;;;;;5.82;4.90;;;;;;;;;;5130718;27;20027;-62
2021/09/01 11:56:31;;;;;;;47.42;29.27;;;;;;;;;;5130886;28;20465;-62
2021/09/01 11:59:04;;;;;;;5.35;4.25;;;;;;;;;;5130958;28;20068;-63
2021/09/01 12:01:31;;;;;;;133.77;61.97;;;;;;;;;;5112514;28;20031;-60
2021/09/01 12:03:56;;;;;;;6.50;5.63;;;;;;;;;;5130321;27;20539;-63
2021/09/01 12:06:32;;;;;;;24.00;16.40;;;;;;;;;;5130875;27;20039;-63
2021/09/01 12:08:58;;;;;;;55.00;38.53;;;;;;;;;;5130708;28;20062;-63
2021/09/01 12:11:24;;;;;;;45.17;31.05;;;;;;;;;;5130639;27;20043;-63
2021/09/01 12:13:51;;;;;;;4.75;3.97;;;;;;;;;;5130387;28;20028;-62
2021/09/01 12:16:24;;;;;;;4.70;3.83;;;;;;;;;;5116283;28;20019;-62
2021/09/01 12:18:56;;;;;;;6.32;4.60;;;;;;;;;;5116881;28;20024;-63
2021/09/01 12:21:40;;;;;;;3.70;3.40;;;;;;;;;;5115304;28;20069;-63
2021/09/01 12:24:13;;;;;;;4.50;3.55;;;;;;;;;;5116514;28;20028;-63
2021/09/01 12:26:45;;;;;;;5.47;4.07;;;;;;;;;;5116404;28;20389;-62
2021/09/01 12:29:31;;;;;;;4.72;3.53;;;;;;;;;;5116264;28;20358;-62
2021/09/01 12:31:58;;;;;;;4.70;3.47;;;;;;;;;;5114877;28;20371;-63
2021/09/01 12:34:28;;;;;;;4.45;3.85;;;;;;;;;;5116321;28;20103;-63
2021/09/01 12:36:57;;;;;;;3.25;2.95;;;;;;;;;;5116296;28;20039;-62
2021/09/01 12:39:23;;;;;;;4.82;3.75;;;;;;;;;;5116637;28;20102;-62
2021/09/01 12:41:48;;;;;;;5.35;4.05;;;;;;;;;;5116501;28;20512;-62
2021/09/01 12:44:16;;;;;;;4.72;4.07;;;;;;;;;;5116097;28;20032;-63
2021/09/01 12:46:42;;;;;;;5.43;4.68;;;;;;;;;;5116189;28;20016;-62
2021/09/01 12:49:25;;;;;;;5.40;3.70;;;;;;;;;;5116016;28;20414;-62
2021/09/01 12:51:51;;;;;;;4.60;3.70;;;;;;;;;;5115984;28;20047;-63
2021/09/01 12:54:21;;;;;;;4.18;3.60;;;;;;;;;;5115905;28;20469;-62
2021/09/01 12:56:47;;;;;;;4.40;4.00;;;;;;;;;;5115650;28;20031;-63
2021/09/01 12:59:13;;;;;;;6.45;4.18;;;;;;;;;;5116415;28;20060;-62
2021/09/01 13:01:38;;;;;;;4.20;3.67;;;;;;;;;;5115969;28;20450;-63
2021/09/01 13:04:04;;;;;;;5.35;3.80;;;;;;;;;;5114900;28;20051;-62
2021/09/01 13:06:29;;;;;;;4.53;4.10;;;;;;;;;;5115515;28;20023;-63
2021/09/01 13:08:55;;;;;;;4.60;4.20;;;;;;;;;;5116008;28;20492;-62
2021/09/01 13:11:20;;;;;;;5.18;4.20;;;;;;;;;;5115672;28;20081;-62
2021/09/01 13:17:21;;;;;;;7.28;4.38;;;;;;;;;;5116162;28;20022;-62
2021/09/01 13:23:22;;;;;;;9.13;4.60;;;;;;;;;;5115896;28;20392;-63
2021/09/01 13:29:23;;;;;;;7.78;4.90;;;;;;;;;;5116112;28;20038;-62
2021/09/01 13:31:48;;;;;;;6.88;4.35;;;;;;;;;;5115340;28;20027;-62
2021/09/01 13:34:14;;;;;;;5.85;4.30;;;;;;;;;;5115263;28;20362;-62
2021/09/01 13:36:40;;;;;;;5.70;4.32;;;;;;;;;;5115388;28;20028;-62
2021/09/01 13:39:06;;;;;;;5.35;4.20;;;;;;;;;;5115266;28;20154;-62
2021/09/01 13:41:32;;;;;;;6.97;4.07;;;;;;;;;;5115262;28;20481;-62
2021/09/01 13:43:58;;;;;;;4.68;3.90;;;;;;;;;;5115294;28;20493;-62
2021/09/01 13:46:27;;;;;;;6.28;4.50;;;;;;;;;;5115011;28;20024;-62
2021/09/01 13:48:52;;;;;;;8.63;4.45;;;;;;;;;;5115570;28;20015;-63
2021/09/01 13:51:18;;;;;;;5.10;3.92;;;;;;;;;;5113531;28;20032;-62
2021/09/01 13:53:43;;;;;;;5.65;4.00;;;;;;;;;;5114730;28;20024;-62
2021/09/01 13:56:09;;;;;;;5.18;4.30;;;;;;;;;;5114863;28;20373;-62
2021/09/01 13:58:34;;;;;;;4.70;4.30;;;;;;;;;;5114710;28;20557;-63
2021/09/01 14:01:00;;;;;;;5.88;4.88;;;;;;;;;;5114968;28;20024;-62
2021/09/01 14:03:29;;;;;;;6.57;4.53;;;;;;;;;;5114528;28;20047;-62
2021/09/01 14:05:54;;;;;;;6.00;4.90;;;;;;;;;;5115224;27;20020;-61
2021/09/01 14:08:20;;;;;;;5.45;4.55;;;;;;;;;;5114671;28;20027;-62
2021/09/01 14:10:45;;;;;;;8.80;5.47;;;;;;;;;;5115368;28;20055;-62
2021/09/01 14:13:11;;;;;;;5.25;4.05;;;;;;;;;;5113373;28;20019;-62
2021/09/01 14:15:37;;;;;;;7.65;5.47;;;;;;;;;;5114921;28;20059;-63
2021/09/01 14:18:03;;;;;;;4.28;3.88;;;;;;;;;;5114568;28;20070;-61
2021/09/01 14:20:30;;;;;;;3.63;2.83;;;;;;;;;;5112983;28;20031;-62
2021/09/01 14:22:57;;;;;;;4.47;4.07;;;;;;;;;;5114538;28;20023;-62
2021/09/01 14:25:23;;;;;;;6.70;4.65;;;;;;;;;;5114257;28;20028;-63
2021/09/01 14:27:48;;;;;;;4.90;4.18;;;;;;;;;;5114044;28;20527;-63
2021/09/01 14:30:14;;;;;;;5.47;3.80;;;;;;;;;;5114088;28;20466;-63
2021/09/01 14:32:42;;;;;;;5.10;3.75;;;;;;;;;;5113047;28;20020;-63
2021/09/01 14:35:08;;;;;;;4.75;4.35;;;;;;;;;;5114161;28;20524;-63
2021/09/01 14:37:33;;;;;;;4.18;3.55;;;;;;;;;;5114247;28;20491;-64
2021/09/01 14:40:02;;;;;;;4.22;3.75;;;;;;;;;;5114083;28;20031;-62
2021/09/01 14:42:27;;;;;;;4.05;3.72;;;;;;;;;;5113830;28;20015;-63
2021/09/01 14:44:53;;;;;;;4.00;3.60;;;;;;;;;;5114185;28;20035;-62
2021/09/01 14:47:18;;;;;;;3.92;3.55;;;;;;;;;;5113779;28;20055;-62
2021/09/01 14:49:44;;;;;;;4.07;3.60;;;;;;;;;;5112539;28;20027;-63
2021/09/01 14:52:09;;;;;;;3.90;3.50;;;;;;;;;;5113829;28;20011;-63
2021/09/01 14:54:35;;;;;;;5.35;4.18;;;;;;;;;;5114055;28;20031;-63
2021/09/01 14:57:00;;;;;;;5.93;3.60;;;;;;;;;;5113850;28;20069;-63
2021/09/01 14:59:26;;;;;;;6.90;4.15;;;;;;;;;;5114016;28;20034;-63
2021/09/01 15:01:51;;;;;;;4.95;3.88;;;;;;;;;;5114055;28;20461;-63
2021/09/01 15:04:17;;;;;;;4.53;4.07;;;;;;;;;;5113297;28;20130;-63
2021/09/01 15:06:42;;;;;;;4.00;3.30;;;;;;;;;;5113685;28;20030;-63
2021/09/01 15:09:08;;;;;;;4.95;3.90;;;;;;;;;;5113844;28;20020;-63
2021/09/01 15:11:33;;;;;;;4.55;4.05;;;;;;;;;;5114046;28;20027;-62
2021/09/01 15:13:59;;;;;;;5.00;3.72;;;;;;;;;;5113959;28;20031;-63
2021/09/01 15:16:25;;;;;;;3.95;3.50;;;;;;;;;;5113530;28;20023;-63
2021/09/01 15:18:52;;;;;;;4.70;3.70;;;;;;;;;;5112247;28;20055;-62
2021/09/01 15:21:17;;;;;;;4.03;3.17;;;;;;;;;;5112095;28;20107;-63
2021/09/01 15:23:43;;;;;;;5.13;3.28;;;;;;;;;;5113408;28;20114;-62
2021/09/01 15:26:09;;;;;;;5.10;3.47;;;;;;;;;;5113806;28;20023;-63
2021/09/01 15:28:34;;;;;;;3.72;3.42;;;;;;;;;;5113731;28;20027;-63
2021/09/01 15:31:00;;;;;;;3.80;3.50;;;;;;;;;;5112737;28;20008;-63
2021/09/01 15:37:00;;;;;;;4.28;3.70;;;;;;;;;;5112918;28;20089;-63
2021/09/01 15:39:29;;;;;;;4.88;3.60;;;;;;;;;;5113043;28;20040;-62
2021/09/01 15:41:57;;;;;;;4.60;3.67;;;;;;;;;;5113248;28;20020;-63
2021/09/01 15:44:24;;;;;;;5.10;3.63;;;;;;;;;;5113110;28;20110;-63
2021/09/01 15:46:55;;;;;;;3.80;3.50;;;;;;;;;;5113141;28;20023;-63
2021/09/01 15:49:25;;;;;;;4.47;3.40;;;;;;;;;;5112357;28;20023;-63
2021/09/01 15:51:51;;;;;;;5.35;3.85;;;;;;;;;;5117232;28;20055;-63
2021/09/01 15:54:17;;;;;;;4.22;3.83;;;;;;;;;;5117440;28;20369;-63
2021/09/01 15:56:44;;;;;;;3.88;3.47;;;;;;;;;;5117074;28;20032;-63
2021/09/01 15:59:12;;;;;;;4.38;3.58;;;;;;;;;;5115111;28;20019;-63
2021/09/01 16:01:38;;;;;;;3.88;3.45;;;;;;;;;;5116437;28;20039;-63
2021/09/01 16:04:04;;;;;;;3.50;3.13;;;;;;;;;;5116041;28;20052;-63
2021/09/01 16:06:30;;;;;;;6.28;3.47;;;;;;;;;;5116763;28;20019;-63
2021/09/01 16:08:56;;;;;;;5.30;3.00;;;;;;;;;;5116640;28;20050;-63
2021/09/01 16:11:22;;;;;;;4.32;3.30;;;;;;;;;;5116722;28;20497;-63
2021/09/01 16:14:00;;;;;;;9.77;4.07;;;;;;;;;;5116761;28;20136;-63
2021/09/01 16:16:27;;;;;;;3.95;3.47;;;;;;;;;;5116710;28;20031;-63
2021/09/01 16:18:52;;;;;;;3.95;3.40;;;;;;;;;;5116755;28;20028;-62
2021/09/01 16:21:23;;;;;;;4.18;3.60;;;;;;;;;;5116654;28;20023;-63
2021/09/01 16:23:49;;;;;;;4.43;3.95;;;;;;;;;;5116602;28;20389;-63
2021/09/01 16:26:15;;;;;;;6.32;3.60;;;;;;;;;;5116705;28;20020;-63
2021/09/01 16:28:40;;;;;;;4.15;3.75;;;;;;;;;;5116382;28;20399;-63
2021/09/01 16:31:06;;;;;;;4.20;3.80;;;;;;;;;;5116339;28;20019;-63
2021/09/01 16:33:32;;;;;;;5.25;3.83;;;;;;;;;;5115879;28;20227;-63
2021/09/01 16:35:58;;;;;;;4.07;3.67;;;;;;;;;;5116300;28;20126;-63
2021/09/01 16:38:26;;;;;;;5.40;4.32;;;;;;;;;;5116118;28;20036;-66
2021/09/01 16:40:56;;;;;;;5.20;3.92;;;;;;;;;;5116185;28;20403;-66
2021/09/01 16:43:22;;;;;;;4.63;4.10;;;;;;;;;;5106136;28;20073;-66
2021/09/01 16:45:48;;;;;;;4.38;3.88;;;;;;;;;;5112710;27;20051;-66
2021/09/01 16:48:14;;;;;;;5.72;4.25;;;;;;;;;;5112523;28;20165;-66
2021/09/01 16:50:50;;;;;;;4.95;4.38;;;;;;;;;;5110782;28;20019;-66
2021/09/01 16:53:20;;;;;;;7.50;4.63;;;;;;;;;;5112582;28;20031;-66
2021/09/01 16:55:46;;;;;;;4.53;4.13;;;;;;;;;;5112771;28;20058;-65
2021/09/01 16:58:18;;;;;;;5.40;4.35;;;;;;;;;;5112542;28;20027;-65
2021/09/01 17:00:46;;;;;;;5.50;4.40;;;;;;;;;;5112498;28;20039;-63
2021/09/01 17:03:19;;;;;;;6.15;4.10;;;;;;;;;;5112474;28;20027;-63
2021/09/01 17:05:45;;;;;;;4.35;3.70;;;;;;;;;;5112902;27;20122;-63
2021/09/01 17:08:11;;;;;;;5.07;4.35;;;;;;;;;;5112586;28;20114;-65
2021/09/01 17:10:40;;;;;;;5.50;4.03;;;;;;;;;;5112225;28;20059;-66
2021/09/01 17:13:05;;;;;;;5.07;4.05;;;;;;;;;;5110617;28;20027;-63
2021/09/01 17:15:31;;;;;;;6.38;4.28;;;;;;;;;;5112310;28;20442;-63
2021/09/01 17:17:56;;;;;;;5.47;4.10;;;;;;;;;;5112292;28;20019;-63
2021/09/01 17:20:22;;;;;;;5.32;4.70;;;;;;;;;;5112570;28;20028;-63
2021/09/01 17:22:48;;;;;;;6.60;4.45;;;;;;;;;;5111699;28;20039;-63
2021/09/01 17:25:13;;;;;;;5.88;4.10;;;;;;;;;;5112431;28;20040;-63
2021/09/01 17:27:42;;;;;;;4.38;3.97;;;;;;;;;;5112046;28;20051;-63
2021/09/01 17:30:10;;;;;;;6.35;4.07;;;;;;;;;;5110736;28;20036;-63
2021/09/01 17:32:38;;;;;;;6.40;4.80;;;;;;;;;;5111975;28;20098;-63
2021/09/01 17:35:04;;;;;;;7.05;4.45;;;;;;;;;;5111809;28;20110;-63
2021/09/01 17:37:31;;;;;;;5.25;4.35;;;;;;;;;;5110141;28;20051;-63
2021/09/01 17:39:59;;;;;;;5.05;4.18;;;;;;;;;;5111834;28;20027;-63
2021/09/01 17:42:26;;;;;;;5.20;3.92;;;;;;;;;;5111311;28;20802;-63
2021/09/01 17:44:51;;;;;;;5.85;4.38;;;;;;;;;;5111925;28;20385;-63
2021/09/01 17:47:17;;;;;;;5.85;4.53;;;;;;;;;;5112122;28;20016;-63
2021/09/01 17:49:44;;;;;;;8.20;5.03;;;;;;;;;;5111888;28;20897;-63
2021/09/01 17:52:09;;;;;;;8.18;5.30;;;;;;;;;;5109997;28;20426;-63
2021/09/01 17:54:36;;;;;;;25.17;12.18;;;;;;;;;;5112025;28;20126;-63
2021/09/01 17:57:01;;;;;;;30.00;13.60;;;;;;;;;;5111589;28;20023;-63
2021/09/01 17:59:32;;;;;;;29.08;14.57;;;;;;;;;;5111162;28;20358;-61
2021/09/01 18:01:57;;;;;;;;;;;;;;;;;;5111475;28;20435;-69
2021/09/01 18:04:23;;;;;;;14.93;9.35;;;;;;;;;;5111013;28;19920;-69
2021/09/01 18:06:48;;;;;;;15.93;9.95;;;;;;;;;;5111838;28;20024;-66
2021/09/01 18:09:14;;;;;;;20.60;10.73;;;;;;;;;;5109999;28;20490;-67
2021/09/01 18:11:40;;;;;;;24.20;13.20;;;;;;;;;;5111134;28;20122;-68
2021/09/01 18:14:05;;;;;;;16.52;9.88;;;;;;;;;;5111143;28;20066;-69
2021/09/01 18:16:31;;;;;;;19.55;9.32;;;;;;;;;;5111502;28;20125;-68
2021/09/01 18:18:57;;;;;;;24.80;11.40;;;;;;;;;;5111402;28;20047;-68
2021/09/01 18:21:23;;;;;;;38.20;16.00;;;;;;;;;;5108862;28;20026;-69
2021/09/01 18:23:48;;;;;;;32.88;15.02;;;;;;;;;;5110369;27;20034;-69
2021/09/01 18:26:17;;;;;;;75.35;24.90;;;;;;;;;;5109130;28;20084;-68
2021/09/01 18:28:42;;;;;;;81.80;27.48;;;;;;;;;;5111449;28;20016;-64
2021/09/01 18:31:08;;;;;;;21.00;10.07;;;;;;;;;;5111011;28;20378;-68
2021/09/01 18:33:33;;;;;;;11.95;7.43;;;;;;;;;;5109713;28;20031;-65
2021/09/01 18:35:59;;;;;;;24.63;12.52;;;;;;;;;;5108830;28;20103;-68
2021/09/01 18:38:25;;;;;;;15.27;8.20;;;;;;;;;;5111179;28;20362;-67
2021/09/01 18:40:57;;;;;;;27.77;12.98;;;;;;;;;;5110664;28;20047;-63
2021/09/01 18:43:28;;;;;;;130.23;46.88;;;;;;;;;;5108157;28;20074;-63
2021/09/01 18:45:54;;;;;;;74.70;30.17;;;;;;;;;;5110568;28;20068;-68
2021/09/01 18:48:21;;;;;;;45.70;20.20;;;;;;;;;;5110524;28;20492;-63
2021/09/01 18:50:47;;;;;;;157.55;61.25;;;;;;;;;;5110792;28;20027;-63
2021/09/01 18:53:12;;;;;;;61.15;29.67;;;;;;;;;;5110198;28;20033;-66
2021/09/01 18:55:40;;;;;;;67.25;32.92;;;;;;;;;;5106497;28;20036;-66
2021/09/01 18:58:05;;;;;;;50.58;27.65;;;;;;;;;;5110640;28;20064;-67
2021/09/01 19:00:31;;;;;;;45.30;26.77;;;;;;;;;;5110443;28;20131;-63
2021/09/01 19:03:05;;;;;;;53.65;32.22;;;;;;;;;;5110922;28;20023;-63
2021/09/01 19:05:31;;;;;;;54.28;33.70;;;;;;;;;;5110909;28;20036;-63
2021/09/01 19:07:57;;;;;;;54.90;32.05;;;;;;;;;;5109425;28;20028;-63
2021/09/01 19:10:22;;;;;;;72.05;35.22;;;;;;;;;;5108887;28;20019;-63
2021/09/01 19:12:50;;;;;;;70.82;34.65;;;;;;;;;;5109934;28;20068;-63
2021/09/01 19:15:16;;;;;;;45.42;24.08;;;;;;;;;;5109797;28;20024;-63
2021/09/01 19:17:41;;;;;;;59.58;30.13;;;;;;;;;;5109296;28;20019;-63
2021/09/01 19:20:08;;;;;;;28.73;16.10;;;;;;;;;;5108976;28;20032;-63
2021/09/01 19:22:33;;;;;;;39.45;19.48;;;;;;;;;;5108683;28;20796;-63
2021/09/01 19:24:59;;;;;;;58.20;25.55;;;;;;;;;;5110491;28;20027;-63
2021/09/01 19:27:25;;;;;;;43.30;22.27;;;;;;;;;;5113764;28;20205;-63
2021/09/01 19:29:58;;;;;;;32.28;19.33;;;;;;;;;;5114692;28;20046;-68
2021/09/01 19:36:01;;;;;;;26.88;15.15;;;;;;;;;;5115393;28;20088;-68
2021/09/01 19:38:27;;;;;;;24.38;14.45;;;;;;;;;;5114735;28;20035;-69
2021/09/01 19:40:52;;;;;;;38.40;15.98;;;;;;;;;;5114707;28;20016;-68
2021/09/01 19:46:53;;;;;;;24.88;13.00;;;;;;;;;;5114815;28;20066;-68
2021/09/01 19:49:19;;;;;;;20.38;12.45;;;;;;;;;;5114774;28;20457;-68
2021/09/01 19:51:45;;;;;;;19.33;11.73;;;;;;;;;;5114633;28;20480;-67
2021/09/01 19:54:12;;;;;;;17.52;10.70;;;;;;;;;;5114548;27;20046;-68
2021/09/01 19:56:39;;;;;;;13.35;8.52;;;;;;;;;;5114614;28;20193;-69
2021/09/01 19:59:13;;;;;;;11.52;7.95;;;;;;;;;;5114422;28;20076;-69
2021/09/01 20:02:02;;;;;;;11.10;6.70;;;;;;;;;;5112029;28;20177;-69
2021/09/01 20:04:29;;;;;;;7.15;6.28;;;;;;;;;;5113898;28;20382;-63
2021/09/01 20:06:56;;;;;;;8.23;5.82;;;;;;;;;;5114052;28;20481;-63
2021/09/01 20:09:21;;;;;;;8.48;5.70;;;;;;;;;;5114849;28;20095;-69
2021/09/01 20:11:49;;;;;;;6.70;5.18;;;;;;;;;;5115366;28;20110;-68
2021/09/01 20:14:15;;;;;;;8.70;5.38;;;;;;;;;;5114596;28;20484;-70
2021/09/01 20:16:41;;;;;;;8.60;5.32;;;;;;;;;;5115496;27;20031;-63
2021/09/01 20:19:09;;;;;;;8.90;5.70;;;;;;;;;;5115705;28;20023;-63
2021/09/01 20:21:34;;;;;;;9.25;5.65;;;;;;;;;;5115740;28;20055;-69
2021/09/01 20:24:01;;;;;;;7.05;6.03;;;;;;;;;;5115556;27;20065;-68
2021/09/01 20:26:28;;;;;;;8.63;5.88;;;;;;;;;;5115546;28;20012;-69
2021/09/01 20:28:53;;;;;;;9.38;5.85;;;;;;;;;;5113930;28;20016;-68
2021/09/01 20:31:19;;;;;;;8.02;5.80;;;;;;;;;;5115335;28;20106;-69
2021/09/01 20:33:45;;;;;;;6.40;5.47;;;;;;;;;;5115327;28;20023;-63
2021/09/01 20:36:14;;;;;;;7.05;5.95;;;;;;;;;;5115059;28;20023;-69
2021/09/01 20:38:41;;;;;;;7.85;5.93;;;;;;;;;;5110295;28;20031;-67
2021/09/01 20:41:07;;;;;;;7.32;6.00;;;;;;;;;;5115181;28;20019;-63
2021/09/01 20:43:34;;;;;;;9.90;5.88;;;;;;;;;;5115193;28;20051;-63
2021/09/01 20:46:04;;;;;;;7.93;5.20;;;;;;;;;;5112765;28;20072;-67
2021/09/01 20:48:31;;;;;;;8.80;6.43;;;;;;;;;;5115215;28;20114;-63
2021/09/01 20:50:57;;;;;;;7.95;5.88;;;;;;;;;;5116328;28;20026;-63
2021/09/01 20:53:27;;;;;;;6.72;5.85;;;;;;;;;;5116044;28;20028;-64
2021/09/01 20:55:52;;;;;;;9.43;5.95;;;;;;;;;;5116129;28;20076;-63
2021/09/01 20:58:19;;;;;;;6.50;5.57;;;;;;;;;;5116508;28;20036;-63
2021/09/01 21:00:44;;;;;;;7.70;5.60;;;;;;;;;;5115973;28;20031;-65
2021/09/01 21:03:11;;;;;;;9.48;5.90;;;;;;;;;;5115833;28;20029;-65
2021/09/01 21:05:38;;;;;;;9.95;5.88;;;;;;;;;;5116446;28;20085;-64
2021/09/01 21:08:04;;;;;;;8.60;5.43;;;;;;;;;;5116115;28;20012;-63
2021/09/01 21:10:30;;;;;;;7.28;5.45;;;;;;;;;;5115494;28;20059;-63
2021/09/01 21:12:57;;;;;;;8.80;5.53;;;;;;;;;;5115646;28;20058;-67
2021/09/01 21:15:23;;;;;;;8.20;5.70;;;;;;;;;;5115732;28;20024;-67
2021/09/01 21:17:51;;;;;;;7.07;5.80;;;;;;;;;;5115817;28;20024;-67
2021/09/01 21:20:19;;;;;;;8.93;5.38;;;;;;;;;;5115597;28;20088;-69
2021/09/01 21:22:46;;;;;;;6.20;5.22;;;;;;;;;;5115749;28;20015;-69
2021/09/01 21:25:13;;;;;;;10.20;5.35;;;;;;;;;;5115776;28;20028;-64
2021/09/01 21:27:38;;;;;;;8.13;5.07;;;;;;;;;;5115528;28;20039;-63
2021/09/01 21:30:08;;;;;;;6.85;5.43;;;;;;;;;;5115593;28;20144;-70
2021/09/01 21:32:34;;;;;;;6.88;5.25;;;;;;;;;;5115617;28;20496;-70
2021/09/01 21:34:59;;;;;;;5.75;5.15;;;;;;;;;;5115408;28;20023;-70
2021/09/01 21:37:26;;;;;;;6.07;4.70;;;;;;;;;;5115437;28;20055;-70
2021/09/01 21:39:51;;;;;;;5.25;4.75;;;;;;;;;;5115406;28;20011;-67
2021/09/01 21:42:17;;;;;;;5.57;5.07;;;;;;;;;;5115293;28;20492;-67
2021/09/01 21:44:43;;;;;;;7.00;4.90;;;;;;;;;;5115267;28;20466;-66
2021/09/01 21:47:13;;;;;;;8.70;5.18;;;;;;;;;;5114851;28;20031;-70
2021/09/01 21:49:39;;;;;;;6.70;5.00;;;;;;;;;;5115184;28;20465;-70
2021/09/01 21:52:06;;;;;;;6.63;5.00;;;;;;;;;;5115291;27;20023;-66